PWSweather.com
Personal Weather Stations
Station Observations
KCOBOOMER
Belmont, Pueblo, CO 81001

BelmontPueblo, CO 81001

Lat: 38.2977486, Lon: -104.5754318

Elevation: 4795

Station Type: Davis Vantage Pro 2

http://www.puebloweather.net

Latest ConditionsUpdated 11:10:03 PM MDT Sunday, Jul 5, 2015
Currently Today's Max Today's Min Today's Average
Temperature 74.3°F23.5°C 94.2°F34.6°C 63.5°F17.5°C 78.5°F25.8°C
Dew Point 57.6°F14.2°C 60.8°F16.0°C 49.4°F9.7°C 53.9°F12.2°C
Winds 11.0 mph ESE17.7 kmh ESE 22.0 mph WSW35.4 kmh WSW - 5.6 mph 9.0 kmh
Wind Gusts 11.0 mph17.7 kmh 36.0 mph57.9 kmh - -
Humidity 56% 71% 23% 46%
Pressure 29.63 in1003.4 mb 29.64 in1003.7 mb 29.48 in998.3 mb -
Hour Temp Dew Point Humidity Winds Wind Gusts Pressure Precip Precip Rate Daily Precip Total
11:10 PM 74.3°F23.5°C 57.6°F14.2°C 56% 11.0 mph ESE17.7 kmh ESE 11.0 mph17.7 kmh 29.63 in1003.4 mb 0.00 in0.0 mm 0.00 in0.0 mm 0.05 in1.3 mm
11:05 PM 74.4°F23.6°C 57.7°F14.3°C 56% Calm Calm 15.0 mph24.1 kmh 29.62 in1003.0 mb 0.00 in0.0 mm 0.00 in0.0 mm 0.05 in1.3 mm
11:00 PM 74.3°F23.5°C 57.1°F13.9°C 55% 14.0 mph N22.5 kmh N 15.0 mph24.1 kmh 29.62 in1003.0 mb 0.00 in0.0 mm 0.00 in0.0 mm 0.05 in1.3 mm
10:55 PM 74.1°F23.4°C 57.4°F14.1°C 56% 10.0 mph NNE16.1 kmh NNE 21.0 mph33.8 kmh 29.61 in1002.7 mb 0.00 in0.0 mm 0.00 in0.0 mm 0.05 in1.3 mm
10:50 PM 73.9°F23.3°C 57.7°F14.3°C 57% 6.0 mph N9.7 kmh N 19.0 mph30.6 kmh 29.62 in1003.0 mb 0.00 in0.0 mm 0.00 in0.0 mm 0.05 in1.3 mm
10:45 PM 73.8°F23.2°C 58.6°F14.8°C 59% 12.0 mph SSE19.3 kmh SSE 18.0 mph29.0 kmh 29.62 in1003.0 mb 0.00 in0.0 mm 0.00 in0.0 mm 0.05 in1.3 mm
10:40 PM 73.7°F23.2°C 59.0°F15.0°C 60% 6.0 mph SE9.7 kmh SE 14.0 mph22.5 kmh 29.62 in1003.0 mb 0.00 in0.0 mm 0.00 in0.0 mm 0.05 in1.3 mm
10:35 PM 73.6°F23.1°C 58.4°F14.7°C 59% 4.0 mph NNE6.4 kmh NNE 14.0 mph22.5 kmh 29.61 in1002.7 mb 0.00 in0.0 mm 0.00 in0.0 mm 0.05 in1.3 mm
10:30 PM 73.5°F23.1°C 58.8°F14.9°C 60% 7.0 mph NNW11.3 kmh NNW 14.0 mph22.5 kmh 29.60 in1002.4 mb 0.00 in0.0 mm 0.00 in0.0 mm 0.05 in1.3 mm
10:25 PM 73.5°F23.1°C 58.8°F14.9°C 60% 4.0 mph N6.4 kmh N 14.0 mph22.5 kmh 29.60 in1002.4 mb 0.00 in0.0 mm 0.00 in0.0 mm 0.05 in1.3 mm
10:20 PM 73.5°F23.1°C 59.2°F15.1°C 61% 6.0 mph N9.7 kmh N 14.0 mph22.5 kmh 29.59 in1002.0 mb 0.00 in0.0 mm 0.00 in0.0 mm 0.05 in1.3 mm
10:15 PM 73.5°F23.1°C 59.2°F15.1°C 61% 2.0 mph NW3.2 kmh NW 21.0 mph33.8 kmh 29.59 in1002.0 mb 0.00 in0.0 mm 0.00 in0.0 mm 0.05 in1.3 mm
10:10 PM 73.4°F23.0°C 59.2°F15.1°C 61% 11.0 mph NW17.7 kmh NW 21.0 mph33.8 kmh 29.58 in1001.7 mb 0.00 in0.0 mm 0.00 in0.0 mm 0.05 in1.3 mm
10:05 PM 73.5°F23.1°C 58.8°F14.9°C 60% 12.0 mph NW19.3 kmh NW 20.0 mph32.2 kmh 29.58 in1001.7 mb 0.00 in0.0 mm 0.00 in0.0 mm 0.05 in1.3 mm
10:00 PM 73.5°F23.1°C 58.8°F14.9°C 60% 6.0 mph NW9.7 kmh NW 12.0 mph19.3 kmh 29.57 in1001.4 mb 0.00 in0.0 mm 0.00 in0.0 mm 0.05 in1.3 mm
09:55 PM 73.6°F23.1°C 58.9°F14.9°C 60% 6.0 mph NW9.7 kmh NW 16.0 mph25.7 kmh 29.57 in1001.4 mb 0.00 in0.0 mm 0.00 in0.0 mm 0.05 in1.3 mm
09:50 PM 73.7°F23.2°C 58.5°F14.7°C 59% 7.0 mph WNW11.3 kmh WNW 16.0 mph25.7 kmh 29.56 in1001.0 mb 0.00 in0.0 mm 0.00 in0.0 mm 0.05 in1.3 mm
09:45 PM 73.9°F23.3°C 58.2°F14.6°C 58% 4.0 mph W6.4 kmh W 21.0 mph33.8 kmh 29.56 in1001.0 mb 0.00 in0.0 mm 0.00 in0.0 mm 0.05 in1.3 mm
09:40 PM 74.1°F23.4°C 57.9°F14.4°C 57% 10.0 mph WNW16.1 kmh WNW 21.0 mph33.8 kmh 29.56 in1001.0 mb 0.00 in0.0 mm 0.00 in0.0 mm 0.05 in1.3 mm
09:35 PM 74.3°F23.5°C 58.1°F14.5°C 57% 5.0 mph NW8.0 kmh NW 10.0 mph16.1 kmh 29.56 in1001.0 mb 0.00 in0.0 mm 0.00 in0.0 mm 0.05 in1.3 mm
09:30 PM 74.6°F23.7°C 57.9°F14.4°C 56% 2.0 mph W3.2 kmh W 8.0 mph12.9 kmh 29.55 in1000.7 mb 0.00 in0.0 mm 0.00 in0.0 mm 0.05 in1.3 mm
09:25 PM 74.8°F23.8°C 58.1°F14.5°C 56% 8.0 mph NW12.9 kmh NW 22.0 mph35.4 kmh 29.55 in1000.7 mb 0.00 in0.0 mm 0.00 in0.0 mm 0.05 in1.3 mm
09:20 PM 74.8°F23.8°C 58.1°F14.5°C 56% 10.0 mph NW16.1 kmh NW 22.0 mph35.4 kmh 29.55 in1000.7 mb 0.00 in0.0 mm 0.00 in0.0 mm 0.05 in1.3 mm
09:15 PM 74.8°F23.8°C 58.1°F14.5°C 56% 6.0 mph W9.7 kmh W 20.0 mph32.2 kmh 29.54 in1000.3 mb 0.00 in0.0 mm 0.00 in0.0 mm 0.05 in1.3 mm
09:10 PM 74.8°F23.8°C 58.1°F14.5°C 56% 8.0 mph WNW12.9 kmh WNW 20.0 mph32.2 kmh 29.54 in1000.3 mb 0.00 in0.0 mm 0.00 in0.0 mm 0.05 in1.3 mm
09:05 PM 74.8°F23.8°C 58.1°F14.5°C 56% 12.0 mph WNW19.3 kmh WNW 22.0 mph35.4 kmh 29.54 in1000.3 mb 0.05 in1.3 mm 0.00 in0.0 mm 0.05 in1.3 mm
09:00 PM 74.8°F23.8°C 58.1°F14.5°C 56% 8.0 mph NW12.9 kmh NW 18.0 mph29.0 kmh 29.53 in1000.0 mb 0.05 in1.3 mm 0.00 in0.0 mm 0.05 in1.3 mm
08:55 PM 74.7°F23.7°C 58.5°F14.7°C 57% 3.0 mph NW4.8 kmh NW 21.0 mph33.8 kmh 29.53 in1000.0 mb 0.05 in1.3 mm 0.00 in0.0 mm 0.05 in1.3 mm
08:50 PM 74.6°F23.7°C 58.4°F14.7°C 57% 11.0 mph NW17.7 kmh NW 20.0 mph32.2 kmh 29.53 in1000.0 mb 0.05 in1.3 mm 0.00 in0.0 mm 0.05 in1.3 mm
08:45 PM 74.4°F23.6°C 58.2°F14.6°C 57% 12.0 mph NW19.3 kmh NW 35.0 mph56.3 kmh 29.53 in1000.0 mb 0.05 in1.3 mm 0.00 in0.0 mm 0.05 in1.3 mm
08:40 PM 74.1°F23.4°C 58.4°F14.7°C 58% 13.0 mph NW20.9 kmh NW 28.0 mph45.1 kmh 29.53 in1000.0 mb 0.05 in1.3 mm 0.00 in0.0 mm 0.05 in1.3 mm
08:35 PM 73.9°F23.3°C 59.2°F15.1°C 60% 14.0 mph WNW22.5 kmh WNW 33.0 mph53.1 kmh 29.53 in1000.0 mb 0.05 in1.3 mm 0.00 in0.0 mm 0.05 in1.3 mm
08:30 PM 73.7°F23.2°C 59.4°F15.2°C 61% 14.0 mph N22.5 kmh N 30.0 mph48.3 kmh 29.53 in1000.0 mb 0.05 in1.3 mm 0.00 in0.0 mm 0.05 in1.3 mm
08:25 PM 73.9°F23.3°C 59.6°F15.3°C 61% 19.0 mph NW30.6 kmh NW 30.0 mph48.3 kmh 29.53 in1000.0 mb 0.05 in1.3 mm 0.00 in0.0 mm 0.05 in1.3 mm
08:20 PM 74.5°F23.6°C 59.3°F15.2°C 59% 10.0 mph NW16.1 kmh NW 20.0 mph32.2 kmh 29.54 in1000.3 mb 0.05 in1.3 mm 0.00 in0.0 mm 0.05 in1.3 mm
08:15 PM 75.8°F24.3°C 60.0°F15.6°C 58% 16.0 mph NW25.7 kmh NW 30.0 mph48.3 kmh 29.55 in1000.7 mb 0.05 in1.3 mm 0.00 in0.0 mm 0.05 in1.3 mm
08:10 PM 77.9°F25.5°C 59.9°F15.5°C 54% 4.0 mph NW6.4 kmh NW 25.0 mph40.2 kmh 29.55 in1000.7 mb 0.05 in1.3 mm 0.12 in3.0 mm 0.05 in1.3 mm
08:05 PM 81.2°F27.3°C 60.8°F16.0°C 50% 4.0 mph WNW6.4 kmh WNW 36.0 mph57.9 kmh 29.56 in1001.0 mb 0.04 in1.0 mm 0.48 in12.2 mm 0.04 in1.0 mm
08:00 PM 83.2°F28.4°C 55.7°F13.2°C 39% 10.0 mph WNW16.1 kmh WNW 36.0 mph57.9 kmh 29.55 in1000.7 mb 0.00 in0.0 mm 0.00 in0.0 mm 0.00 in0.0 mm
07:55 PM 83.9°F28.8°C 54.1°F12.3°C 36% 15.0 mph NW24.1 kmh NW 35.0 mph56.3 kmh 29.54 in1000.3 mb 0.00 in0.0 mm 0.00 in0.0 mm 0.00 in0.0 mm
07:50 PM 84.0°F28.9°C 54.2°F12.3°C 36% 8.0 mph W12.9 kmh W 8.0 mph12.9 kmh 29.54 in1000.3 mb 0.00 in0.0 mm 0.00 in0.0 mm 0.00 in0.0 mm
07:45 PM 84.1°F28.9°C 53.5°F11.9°C 35% 7.0 mph SW11.3 kmh SW 17.0 mph27.4 kmh 29.52 in999.7 mb 0.00 in0.0 mm 0.00 in0.0 mm 0.00 in0.0 mm
07:40 PM 84.3°F29.1°C 53.7°F12.1°C 35% 6.0 mph SSW9.7 kmh SSW 11.0 mph17.7 kmh 29.52 in999.7 mb 0.00 in0.0 mm 0.00 in0.0 mm 0.00 in0.0 mm
07:35 PM 84.6°F29.2°C 53.2°F11.8°C 34% 14.0 mph SW22.5 kmh SW 22.0 mph35.4 kmh 29.52 in999.7 mb 0.00 in0.0 mm 0.00 in0.0 mm 0.00 in0.0 mm
07:30 PM 85.0°F29.4°C 53.5°F11.9°C 34% 10.0 mph S16.1 kmh S 14.0 mph22.5 kmh 29.52 in999.7 mb 0.00 in0.0 mm 0.00 in0.0 mm 0.00 in0.0 mm
07:25 PM 85.2°F29.6°C 52.9°F11.6°C 33% 12.0 mph SSW19.3 kmh SSW 26.0 mph41.8 kmh 29.52 in999.7 mb 0.00 in0.0 mm 0.00 in0.0 mm 0.00 in0.0 mm
07:20 PM 85.6°F29.8°C 52.4°F11.3°C 32% 12.0 mph SW19.3 kmh SW 19.0 mph30.6 kmh 29.52 in999.7 mb 0.00 in0.0 mm 0.00 in0.0 mm 0.00 in0.0 mm
07:15 PM 86.0°F30.0°C 52.7°F11.5°C 32% 14.0 mph SW22.5 kmh SW 25.0 mph40.2 kmh 29.51 in999.3 mb 0.00 in0.0 mm 0.00 in0.0 mm 0.00 in0.0 mm
07:10 PM 86.2°F30.1°C 52.9°F11.6°C 32% 12.0 mph WSW19.3 kmh WSW 16.0 mph25.7 kmh 29.51 in999.3 mb 0.00 in0.0 mm 0.00 in0.0 mm 0.00 in0.0 mm
07:05 PM 86.4°F30.2°C 53.1°F11.7°C 32% Calm Calm 23.0 mph37.0 kmh 29.51 in999.3 mb 0.00 in0.0 mm 0.00 in0.0 mm 0.00 in0.0 mm
07:00 PM 86.4°F30.2°C 53.1°F11.7°C 32% 14.0 mph WSW22.5 kmh WSW 22.0 mph35.4 kmh 29.51 in999.3 mb 0.00 in0.0 mm 0.00 in0.0 mm 0.00 in0.0 mm
06:55 PM 86.2°F30.1°C 52.9°F11.6°C 32% 9.0 mph S14.5 kmh S 22.0 mph35.4 kmh 29.50 in999.0 mb 0.00 in0.0 mm 0.00 in0.0 mm 0.00 in0.0 mm
06:50 PM 86.1°F30.1°C 52.8°F11.6°C 32% Calm Calm 22.0 mph35.4 kmh 29.50 in999.0 mb 0.00 in0.0 mm 0.00 in0.0 mm 0.00 in0.0 mm
06:45 PM 86.1°F30.1°C 52.8°F11.6°C 32% 5.0 mph WSW8.0 kmh WSW 18.0 mph29.0 kmh 29.50 in999.0 mb 0.00 in0.0 mm 0.00 in0.0 mm 0.00 in0.0 mm
06:40 PM 86.1°F30.1°C 52.0°F11.1°C 31% 7.0 mph W11.3 kmh W 17.0 mph27.4 kmh 29.50 in999.0 mb 0.00 in0.0 mm 0.00 in0.0 mm 0.00 in0.0 mm
06:35 PM 86.3°F30.2°C 52.1°F11.2°C 31% 5.0 mph WSW8.0 kmh WSW 21.0 mph33.8 kmh 29.50 in999.0 mb 0.00 in0.0 mm 0.00 in0.0 mm 0.00 in0.0 mm
06:30 PM 86.5°F30.3°C 52.3°F11.3°C 31% 1.0 mph SW1.6 kmh SW 16.0 mph25.7 kmh 29.50 in999.0 mb 0.00 in0.0 mm 0.00 in0.0 mm 0.00 in0.0 mm
06:25 PM 86.6°F30.3°C 52.4°F11.3°C 31% 7.0 mph WSW11.3 kmh WSW 16.0 mph25.7 kmh 29.50 in999.0 mb 0.00 in0.0 mm 0.00 in0.0 mm 0.00 in0.0 mm
06:20 PM 86.8°F30.4°C 52.6°F11.4°C 31% 4.0 mph W6.4 kmh W 15.0 mph24.1 kmh 29.49 in998.6 mb 0.00 in0.0 mm 0.00 in0.0 mm 0.00 in0.0 mm
06:15 PM 86.8°F30.4°C 51.7°F10.9°C 30% 10.0 mph WSW16.1 kmh WSW 31.0 mph49.9 kmh 29.50 in999.0 mb 0.00 in0.0 mm 0.00 in0.0 mm 0.00 in0.0 mm
06:10 PM 86.9°F30.5°C 52.7°F11.5°C 31% 5.0 mph W8.0 kmh W 18.0 mph29.0 kmh 29.50 in999.0 mb 0.00 in0.0 mm 0.00 in0.0 mm 0.00 in0.0 mm
06:05 PM 86.9°F30.5°C 52.7°F11.5°C 31% 8.0 mph SW12.9 kmh SW 19.0 mph30.6 kmh 29.50 in999.0 mb 0.00 in0.0 mm 0.00 in0.0 mm 0.00 in0.0 mm
06:00 PM 87.0°F30.6°C 51.9°F11.1°C 30% 10.0 mph W16.1 kmh W 12.0 mph19.3 kmh 29.50 in999.0 mb 0.00 in0.0 mm 0.00 in0.0 mm 0.00 in0.0 mm
05:55 PM 87.0°F30.6°C 51.9°F11.1°C 30% 9.0 mph SW14.5 kmh SW 25.0 mph40.2 kmh 29.50 in999.0 mb 0.00 in0.0 mm 0.00 in0.0 mm 0.00 in0.0 mm
05:50 PM 87.2°F30.7°C 52.0°F11.1°C 30% 22.0 mph WSW35.4 kmh WSW 22.0 mph35.4 kmh 29.49 in998.6 mb 0.00 in0.0 mm 0.00 in0.0 mm 0.00 in0.0 mm
05:45 PM 87.3°F30.7°C 51.2°F10.7°C 29% 12.0 mph WSW19.3 kmh WSW 27.0 mph43.5 kmh 29.50 in999.0 mb 0.00 in0.0 mm 0.00 in0.0 mm 0.00 in0.0 mm
05:40 PM 87.5°F30.8°C 51.4°F10.8°C 29% 9.0 mph SW14.5 kmh SW 25.0 mph40.2 kmh 29.49 in998.6 mb 0.00 in0.0 mm 0.00 in0.0 mm 0.00 in0.0 mm
05:35 PM 87.6°F30.9°C 52.4°F11.3°C 30% 16.0 mph SW25.7 kmh SW 33.0 mph53.1 kmh 29.49 in998.6 mb 0.00 in0.0 mm 0.00 in0.0 mm 0.00 in0.0 mm
05:30 PM 87.8°F31.0°C 51.6°F10.9°C 29% 14.0 mph WSW22.5 kmh WSW 33.0 mph53.1 kmh 29.49 in998.6 mb 0.00 in0.0 mm 0.00 in0.0 mm 0.00 in0.0 mm
05:25 PM 88.0°F31.1°C 50.8°F10.4°C 28% 19.0 mph WSW30.6 kmh WSW 29.0 mph46.7 kmh 29.49 in998.6 mb 0.00 in0.0 mm 0.00 in0.0 mm 0.00 in0.0 mm
05:20 PM 88.4°F31.3°C 51.2°F10.7°C 28% 13.0 mph SW20.9 kmh SW 29.0 mph46.7 kmh 29.49 in998.6 mb 0.00 in0.0 mm 0.00 in0.0 mm 0.00 in0.0 mm
05:15 PM 88.9°F31.6°C 51.6°F10.9°C 28% 16.0 mph WSW25.7 kmh WSW 34.0 mph54.7 kmh 29.49 in998.6 mb 0.00 in0.0 mm 0.00 in0.0 mm 0.00 in0.0 mm
05:10 PM 89.8°F32.1°C 52.4°F11.3°C 28% 6.0 mph S9.7 kmh S 16.0 mph25.7 kmh 29.49 in998.6 mb 0.00 in0.0 mm 0.00 in0.0 mm 0.00 in0.0 mm
05:05 PM 90.8°F32.7°C 54.2°F12.3°C 29% 3.0 mph SW4.8 kmh SW 7.0 mph11.3 kmh 29.49 in998.6 mb 0.00 in0.0 mm 0.00 in0.0 mm 0.00 in0.0 mm
05:00 PM 91.0°F32.8°C 52.4°F11.3°C 27% 7.0 mph SW11.3 kmh SW 7.0 mph11.3 kmh 29.48 in998.3 mb 0.00 in0.0 mm 0.00 in0.0 mm 0.00 in0.0 mm
04:55 PM 91.1°F32.8°C 52.5°F11.4°C 27% 2.0 mph SW3.2 kmh SW 4.0 mph6.4 kmh 29.48 in998.3 mb 0.00 in0.0 mm 0.00 in0.0 mm 0.00 in0.0 mm
04:50 PM 91.2°F32.9°C 52.6°F11.4°C 27% 4.0 mph SW6.4 kmh SW 4.0 mph6.4 kmh 29.48 in998.3 mb 0.00 in0.0 mm 0.00 in0.0 mm 0.00 in0.0 mm
04:45 PM 91.2°F32.9°C 51.6°F10.9°C 26% Calm Calm 9.0 mph14.5 kmh 29.48 in998.3 mb 0.00 in0.0 mm 0.00 in0.0 mm 0.00 in0.0 mm
04:40 PM 91.3°F32.9°C 53.7°F12.1°C 28% Calm Calm 1.0 mph1.6 kmh 29.48 in998.3 mb 0.00 in0.0 mm 0.00 in0.0 mm 0.00 in0.0 mm
04:35 PM 91.6°F33.1°C 51.9°F11.1°C 26% 4.0 mph SW6.4 kmh SW 6.0 mph9.7 kmh 29.48 in998.3 mb 0.00 in0.0 mm 0.00 in0.0 mm 0.00 in0.0 mm
04:30 PM 91.8°F33.2°C 52.1°F11.2°C 26% Calm Calm -- 29.48 in998.3 mb 0.00 in0.0 mm 0.00 in0.0 mm 0.00 in0.0 mm
04:25 PM 91.6°F33.1°C 52.9°F11.6°C 27% Calm Calm 5.0 mph8.0 kmh 29.48 in998.3 mb 0.00 in0.0 mm 0.00 in0.0 mm 0.00 in0.0 mm
04:20 PM 91.0°F32.8°C 51.4°F10.8°C 26% Calm Calm 5.0 mph8.0 kmh 29.48 in998.3 mb 0.00 in0.0 mm 0.00 in0.0 mm 0.00 in0.0 mm
04:15 PM 90.9°F32.7°C 50.3°F10.2°C 25% 4.0 mph SW6.4 kmh SW 6.0 mph9.7 kmh 29.49 in998.6 mb 0.00 in0.0 mm 0.00 in0.0 mm 0.00 in0.0 mm
04:10 PM 90.9°F32.7°C 52.3°F11.3°C 27% 2.0 mph SW3.2 kmh SW 4.0 mph6.4 kmh 29.49 in998.6 mb 0.00 in0.0 mm 0.00 in0.0 mm 0.00 in0.0 mm
04:05 PM 90.9°F32.7°C 51.3°F10.7°C 26% 2.0 mph SW3.2 kmh SW 7.0 mph11.3 kmh 29.49 in998.6 mb 0.00 in0.0 mm 0.00 in0.0 mm 0.00 in0.0 mm
04:00 PM 90.8°F32.7°C 51.2°F10.7°C 26% 7.0 mph SSW11.3 kmh SSW 7.0 mph11.3 kmh 29.49 in998.6 mb 0.00 in0.0 mm 0.00 in0.0 mm 0.00 in0.0 mm
03:55 PM 90.8°F32.7°C 50.2°F10.1°C 25% 7.0 mph SW11.3 kmh SW 14.0 mph22.5 kmh 29.49 in998.6 mb 0.00 in0.0 mm 0.00 in0.0 mm 0.00 in0.0 mm
03:50 PM 90.7°F32.6°C 51.1°F10.6°C 26% 8.0 mph SSW12.9 kmh SSW 13.0 mph20.9 kmh 29.49 in998.6 mb 0.00 in0.0 mm 0.00 in0.0 mm 0.00 in0.0 mm
03:45 PM 91.0°F32.8°C 50.3°F10.2°C 25% 3.0 mph SSW4.8 kmh SSW 11.0 mph17.7 kmh 29.49 in998.6 mb 0.00 in0.0 mm 0.00 in0.0 mm 0.00 in0.0 mm
03:40 PM 91.1°F32.8°C 51.5°F10.8°C 26% 8.0 mph S12.9 kmh S 11.0 mph17.7 kmh 29.49 in998.6 mb 0.00 in0.0 mm 0.00 in0.0 mm 0.00 in0.0 mm
03:35 PM 91.1°F32.8°C 50.4°F10.2°C 25% 14.0 mph S22.5 kmh S 14.0 mph22.5 kmh 29.49 in998.6 mb 0.00 in0.0 mm 0.00 in0.0 mm 0.00 in0.0 mm
03:30 PM 91.4°F33.0°C 51.7°F10.9°C 26% 14.0 mph SSW22.5 kmh SSW 14.0 mph22.5 kmh 29.50 in999.0 mb 0.00 in0.0 mm 0.00 in0.0 mm 0.00 in0.0 mm
03:25 PM 91.0°F32.8°C 50.3°F10.2°C 25% 3.0 mph SSW4.8 kmh SSW 14.0 mph22.5 kmh 29.50 in999.0 mb 0.00 in0.0 mm 0.00 in0.0 mm 0.00 in0.0 mm
03:20 PM 90.6°F32.6°C 51.1°F10.6°C 26% 10.0 mph S16.1 kmh S 14.0 mph22.5 kmh 29.50 in999.0 mb 0.00 in0.0 mm 0.00 in0.0 mm 0.00 in0.0 mm
03:15 PM 90.8°F32.7°C 51.2°F10.7°C 26% 9.0 mph SSW14.5 kmh SSW 11.0 mph17.7 kmh 29.50 in999.0 mb 0.00 in0.0 mm 0.00 in0.0 mm 0.00 in0.0 mm
03:10 PM 90.6°F32.6°C 51.1°F10.6°C 26% 6.0 mph S9.7 kmh S 10.0 mph16.1 kmh 29.50 in999.0 mb 0.00 in0.0 mm 0.00 in0.0 mm 0.00 in0.0 mm
03:05 PM 90.8°F32.7°C 53.2°F11.8°C 28% 9.0 mph S14.5 kmh S 18.0 mph29.0 kmh 29.50 in999.0 mb 0.00 in0.0 mm 0.00 in0.0 mm 0.00 in0.0 mm
03:00 PM 90.7°F32.6°C 51.1°F10.6°C 26% 4.0 mph SSW6.4 kmh SSW 6.0 mph9.7 kmh 29.50 in999.0 mb 0.00 in0.0 mm 0.00 in0.0 mm 0.00 in0.0 mm
02:55 PM 90.5°F32.5°C 51.0°F10.6°C 26% 7.0 mph ESE11.3 kmh ESE 16.0 mph25.7 kmh 29.50 in999.0 mb 0.00 in0.0 mm 0.00 in0.0 mm 0.00 in0.0 mm
02:50 PM 90.6°F32.6°C 52.1°F11.2°C 27% 8.0 mph S12.9 kmh S 12.0 mph19.3 kmh 29.51 in999.3 mb 0.00 in0.0 mm 0.00 in0.0 mm 0.00 in0.0 mm
02:45 PM 90.6°F32.6°C 51.1°F10.6°C 26% 10.0 mph S16.1 kmh S 19.0 mph30.6 kmh 29.51 in999.3 mb 0.00 in0.0 mm 0.00 in0.0 mm 0.00 in0.0 mm
02:40 PM 90.8°F32.7°C 50.2°F10.1°C 25% 11.0 mph S17.7 kmh S 13.0 mph20.9 kmh 29.51 in999.3 mb 0.00 in0.0 mm 0.00 in0.0 mm 0.00 in0.0 mm
02:35 PM 91.2°F32.9°C 51.6°F10.9°C 26% 10.0 mph SW16.1 kmh SW 19.0 mph30.6 kmh 29.51 in999.3 mb 0.00 in0.0 mm 0.00 in0.0 mm 0.00 in0.0 mm
02:30 PM 91.1°F32.8°C 50.4°F10.2°C 25% 7.0 mph S11.3 kmh S 19.0 mph30.6 kmh 29.51 in999.3 mb 0.00 in0.0 mm 0.00 in0.0 mm 0.00 in0.0 mm
02:25 PM 92.0°F33.3°C 51.2°F10.7°C 25% 8.0 mph S12.9 kmh S 16.0 mph25.7 kmh 29.51 in999.3 mb 0.00 in0.0 mm 0.00 in0.0 mm 0.00 in0.0 mm
02:20 PM 93.1°F33.9°C 49.9°F9.9°C 23% 14.0 mph S22.5 kmh S 16.0 mph25.7 kmh 29.51 in999.3 mb 0.00 in0.0 mm 0.00 in0.0 mm 0.00 in0.0 mm
02:15 PM 93.3°F34.1°C 51.2°F10.7°C 24% 5.0 mph WSW8.0 kmh WSW 18.0 mph29.0 kmh 29.52 in999.7 mb 0.00 in0.0 mm 0.00 in0.0 mm 0.00 in0.0 mm
02:10 PM 94.2°F34.6°C 55.1°F12.8°C 27% 6.0 mph WSW9.7 kmh WSW 6.0 mph9.7 kmh 29.52 in999.7 mb 0.00 in0.0 mm 0.00 in0.0 mm 0.00 in0.0 mm
02:05 PM 92.9°F33.8°C 50.8°F10.4°C 24% 6.0 mph SSE9.7 kmh SSE 14.0 mph22.5 kmh 29.52 in999.7 mb 0.00 in0.0 mm 0.00 in0.0 mm 0.00 in0.0 mm
02:00 PM 93.6°F34.2°C 52.5°F11.4°C 25% 7.0 mph SE11.3 kmh SE 12.0 mph19.3 kmh 29.52 in999.7 mb 0.00 in0.0 mm 0.00 in0.0 mm 0.00 in0.0 mm
01:55 PM 93.9°F34.4°C 50.5°F10.3°C 23% 13.0 mph S20.9 kmh S 18.0 mph29.0 kmh 29.52 in999.7 mb 0.00 in0.0 mm 0.00 in0.0 mm 0.00 in0.0 mm
01:50 PM 94.2°F34.6°C 51.9°F11.1°C 24% 5.0 mph E8.0 kmh E 7.0 mph11.3 kmh 29.52 in999.7 mb 0.00 in0.0 mm 0.00 in0.0 mm 0.00 in0.0 mm
01:45 PM 93.4°F34.1°C 51.3°F10.7°C 24% 8.0 mph E12.9 kmh E 20.0 mph32.2 kmh 29.53 in1000.0 mb 0.00 in0.0 mm 0.00 in0.0 mm 0.00 in0.0 mm
01:40 PM 92.2°F33.4°C 53.4°F11.9°C 27% 2.0 mph SSW3.2 kmh SSW 10.0 mph16.1 kmh 29.53 in1000.0 mb 0.00 in0.0 mm 0.00 in0.0 mm 0.00 in0.0 mm
01:35 PM 91.8°F33.2°C 51.0°F10.6°C 25% 7.0 mph SSE11.3 kmh SSE 15.0 mph24.1 kmh 29.53 in1000.0 mb 0.00 in0.0 mm 0.00 in0.0 mm 0.00 in0.0 mm
01:30 PM 92.7°F33.7°C 52.8°F11.6°C 26% 8.0 mph SSE12.9 kmh SSE 15.0 mph24.1 kmh 29.53 in1000.0 mb 0.00 in0.0 mm 0.00 in0.0 mm 0.00 in0.0 mm
01:25 PM 91.3°F32.9°C 54.6°F12.6°C 29% 2.0 mph SE3.2 kmh SE 18.0 mph29.0 kmh 29.53 in1000.0 mb 0.00 in0.0 mm 0.00 in0.0 mm 0.00 in0.0 mm
01:20 PM 91.7°F33.2°C 52.0°F11.1°C 26% 13.0 mph SSW20.9 kmh SSW 13.0 mph20.9 kmh 29.54 in1000.3 mb 0.00 in0.0 mm 0.00 in0.0 mm 0.00 in0.0 mm
01:15 PM 92.2°F33.4°C 52.4°F11.3°C 26% 6.0 mph SE9.7 kmh SE 13.0 mph20.9 kmh 29.54 in1000.3 mb 0.00 in0.0 mm 0.00 in0.0 mm 0.00 in0.0 mm
01:10 PM 91.6°F33.1°C 51.9°F11.1°C 26% 2.0 mph SE3.2 kmh SE 9.0 mph14.5 kmh 29.54 in1000.3 mb 0.00 in0.0 mm 0.00 in0.0 mm 0.00 in0.0 mm
01:05 PM 90.4°F32.4°C 50.9°F10.5°C 26% 2.0 mph S3.2 kmh S 15.0 mph24.1 kmh 29.55 in1000.7 mb 0.00 in0.0 mm 0.00 in0.0 mm 0.00 in0.0 mm
01:00 PM 91.2°F32.9°C 52.6°F11.4°C 27% 2.0 mph SSW3.2 kmh SSW 11.0 mph17.7 kmh 29.55 in1000.7 mb 0.00 in0.0 mm 0.00 in0.0 mm 0.00 in0.0 mm
12:55 PM 91.1°F32.8°C 53.5°F11.9°C 28% 8.0 mph SE12.9 kmh SE 15.0 mph24.1 kmh 29.55 in1000.7 mb 0.00 in0.0 mm 0.00 in0.0 mm 0.00 in0.0 mm
12:50 PM 90.7°F32.6°C 52.2°F11.2°C 27% 15.0 mph SE24.1 kmh SE 15.0 mph24.1 kmh 29.56 in1001.0 mb 0.00 in0.0 mm 0.00 in0.0 mm 0.00 in0.0 mm
12:45 PM 90.5°F32.5°C 53.0°F11.7°C 28% 8.0 mph S12.9 kmh S 14.0 mph22.5 kmh 29.56 in1001.0 mb 0.00 in0.0 mm 0.00 in0.0 mm 0.00 in0.0 mm
12:40 PM 90.6°F32.6°C 53.1°F11.7°C 28% 8.0 mph SE12.9 kmh SE 13.0 mph20.9 kmh 29.56 in1001.0 mb 0.00 in0.0 mm 0.00 in0.0 mm 0.00 in0.0 mm
12:35 PM 90.5°F32.5°C 53.0°F11.7°C 28% 6.0 mph S9.7 kmh S 12.0 mph19.3 kmh 29.56 in1001.0 mb 0.00 in0.0 mm 0.00 in0.0 mm 0.00 in0.0 mm
12:30 PM 90.1°F32.3°C 50.6°F10.3°C 26% 1.0 mph SE1.6 kmh SE 8.0 mph12.9 kmh 29.56 in1001.0 mb 0.00 in0.0 mm 0.00 in0.0 mm 0.00 in0.0 mm
12:25 PM 90.4°F32.4°C 54.8°F12.7°C 30% 8.0 mph SE12.9 kmh SE 17.0 mph27.4 kmh 29.57 in1001.4 mb 0.00 in0.0 mm 0.00 in0.0 mm 0.00 in0.0 mm
12:20 PM 89.8°F32.1°C 53.3°F11.8°C 29% 4.0 mph SE6.4 kmh SE 10.0 mph16.1 kmh 29.57 in1001.4 mb 0.00 in0.0 mm 0.00 in0.0 mm 0.00 in0.0 mm
12:15 PM 89.2°F31.8°C 53.8°F12.1°C 30% 8.0 mph SE12.9 kmh SE 14.0 mph22.5 kmh 29.57 in1001.4 mb 0.00 in0.0 mm 0.00 in0.0 mm 0.00 in0.0 mm
12:10 PM 89.1°F31.7°C 51.8°F11.0°C 28% 10.0 mph SE16.1 kmh SE 10.0 mph16.1 kmh 29.57 in1001.4 mb 0.00 in0.0 mm 0.00 in0.0 mm 0.00 in0.0 mm
12:05 PM 88.8°F31.6°C 53.4°F11.9°C 30% 8.0 mph SE12.9 kmh SE 16.0 mph25.7 kmh 29.57 in1001.4 mb 0.00 in0.0 mm 0.00 in0.0 mm 0.00 in0.0 mm
12:00 PM 88.5°F31.4°C 51.3°F10.7°C 28% 5.0 mph S8.0 kmh S 8.0 mph12.9 kmh 29.57 in1001.4 mb 0.00 in0.0 mm 0.00 in0.0 mm 0.00 in0.0 mm
11:55 AM 88.6°F31.4°C 51.4°F10.8°C 28% 10.0 mph ESE16.1 kmh ESE 16.0 mph25.7 kmh 29.57 in1001.4 mb 0.00 in0.0 mm 0.00 in0.0 mm 0.00 in0.0 mm
11:50 AM 88.6°F31.4°C 53.2°F11.8°C 30% 10.0 mph S16.1 kmh S 10.0 mph16.1 kmh 29.58 in1001.7 mb 0.00 in0.0 mm 0.00 in0.0 mm 0.00 in0.0 mm
11:45 AM 88.0°F31.1°C 51.8°F11.0°C 29% 4.0 mph ESE6.4 kmh ESE 12.0 mph19.3 kmh 29.58 in1001.7 mb 0.00 in0.0 mm 0.00 in0.0 mm 0.00 in0.0 mm
11:40 AM 87.9°F31.1°C 51.7°F10.9°C 29% 12.0 mph SE19.3 kmh SE 12.0 mph19.3 kmh 29.58 in1001.7 mb 0.00 in0.0 mm 0.00 in0.0 mm 0.00 in0.0 mm
11:35 AM 87.9°F31.1°C 51.7°F10.9°C 29% 7.0 mph SSW11.3 kmh SSW 18.0 mph29.0 kmh 29.58 in1001.7 mb 0.00 in0.0 mm 0.00 in0.0 mm 0.00 in0.0 mm
11:30 AM 87.6°F30.9°C 49.5°F9.7°C 27% 7.0 mph S11.3 kmh S 18.0 mph29.0 kmh 29.58 in1001.7 mb 0.00 in0.0 mm 0.00 in0.0 mm 0.00 in0.0 mm
11:25 AM 87.5°F30.8°C 50.4°F10.2°C 28% 8.0 mph SE12.9 kmh SE 13.0 mph20.9 kmh 29.57 in1001.4 mb 0.00 in0.0 mm 0.00 in0.0 mm 0.00 in0.0 mm
11:20 AM 87.1°F30.6°C 51.0°F10.6°C 29% 8.0 mph S12.9 kmh S 12.0 mph19.3 kmh 29.57 in1001.4 mb 0.00 in0.0 mm 0.00 in0.0 mm 0.00 in0.0 mm
11:15 AM 86.8°F30.4°C 50.8°F10.4°C 29% 9.0 mph SW14.5 kmh SW 12.0 mph19.3 kmh 29.57 in1001.4 mb 0.00 in0.0 mm 0.00 in0.0 mm 0.00 in0.0 mm
11:10 AM 86.6°F30.3°C 49.7°F9.8°C 28% 6.0 mph S9.7 kmh S 8.0 mph12.9 kmh 29.57 in1001.4 mb 0.00 in0.0 mm 0.00 in0.0 mm 0.00 in0.0 mm
11:05 AM 86.4°F30.2°C 49.5°F9.7°C 28% 8.0 mph S12.9 kmh S 15.0 mph24.1 kmh 29.58 in1001.7 mb 0.00 in0.0 mm 0.00 in0.0 mm 0.00 in0.0 mm
11:00 AM 86.3°F30.2°C 49.4°F9.7°C 28% 4.0 mph SE6.4 kmh SE 12.0 mph19.3 kmh 29.58 in1001.7 mb 0.00 in0.0 mm 0.00 in0.0 mm 0.00 in0.0 mm
10:55 AM 86.2°F30.1°C 51.2°F10.7°C 30% 10.0 mph S16.1 kmh S 16.0 mph25.7 kmh 29.57 in1001.4 mb 0.00 in0.0 mm 0.00 in0.0 mm 0.00 in0.0 mm
10:50 AM 85.9°F29.9°C 51.8°F11.0°C 31% 14.0 mph SSE22.5 kmh SSE 16.0 mph25.7 kmh 29.57 in1001.4 mb 0.00 in0.0 mm 0.00 in0.0 mm 0.00 in0.0 mm
10:45 AM 86.1°F30.1°C 51.1°F10.6°C 30% 12.0 mph S19.3 kmh S 18.0 mph29.0 kmh 29.57 in1001.4 mb 0.00 in0.0 mm 0.00 in0.0 mm 0.00 in0.0 mm
10:40 AM 86.2°F30.1°C 52.1°F11.2°C 31% 8.0 mph SW12.9 kmh SW 14.0 mph22.5 kmh 29.57 in1001.4 mb 0.00 in0.0 mm 0.00 in0.0 mm 0.00 in0.0 mm
10:35 AM 86.0°F30.0°C 53.6°F12.0°C 33% 12.0 mph S19.3 kmh S 19.0 mph30.6 kmh 29.57 in1001.4 mb 0.00 in0.0 mm 0.00 in0.0 mm 0.00 in0.0 mm
10:30 AM 86.6°F30.3°C 51.5°F10.8°C 30% 11.0 mph SSW17.7 kmh SSW 13.0 mph20.9 kmh 29.58 in1001.7 mb 0.00 in0.0 mm 0.00 in0.0 mm 0.00 in0.0 mm
10:25 AM 86.5°F30.3°C 53.2°F11.8°C 32% 2.0 mph SSW3.2 kmh SSW 12.0 mph19.3 kmh 29.58 in1001.7 mb 0.00 in0.0 mm 0.00 in0.0 mm 0.00 in0.0 mm
10:20 AM 85.9°F29.9°C 54.3°F12.4°C 34% 10.0 mph SW16.1 kmh SW 12.0 mph19.3 kmh 29.58 in1001.7 mb 0.00 in0.0 mm 0.00 in0.0 mm 0.00 in0.0 mm
10:15 AM 85.2°F29.6°C 52.9°F11.6°C 33% 10.0 mph S16.1 kmh S 20.0 mph32.2 kmh 29.58 in1001.7 mb 0.00 in0.0 mm 0.00 in0.0 mm 0.00 in0.0 mm
10:10 AM 84.7°F29.3°C 57.0°F13.9°C 39% 14.0 mph S22.5 kmh S 17.0 mph27.4 kmh 29.58 in1001.7 mb 0.00 in0.0 mm 0.00 in0.0 mm 0.00 in0.0 mm
10:05 AM 83.9°F28.8°C 56.3°F13.5°C 39% 2.0 mph SW3.2 kmh SW 12.0 mph19.3 kmh 29.58 in1001.7 mb 0.00 in0.0 mm 0.00 in0.0 mm 0.00 in0.0 mm
10:00 AM 83.4°F28.6°C 55.2°F12.9°C 38% 6.0 mph S9.7 kmh S 11.0 mph17.7 kmh 29.58 in1001.7 mb 0.00 in0.0 mm 0.00 in0.0 mm 0.00 in0.0 mm
09:55 AM 82.9°F28.3°C 57.5°F14.2°C 42% 4.0 mph S6.4 kmh S 11.0 mph17.7 kmh 29.58 in1001.7 mb 0.00 in0.0 mm 0.00 in0.0 mm 0.00 in0.0 mm
09:50 AM 82.0°F27.8°C 56.7°F13.7°C 42% 6.0 mph S9.7 kmh S 11.0 mph17.7 kmh 29.58 in1001.7 mb 0.00 in0.0 mm 0.00 in0.0 mm 0.00 in0.0 mm
09:45 AM 81.4°F27.4°C 56.8°F13.8°C 43% 3.0 mph SSW4.8 kmh SSW 13.0 mph20.9 kmh 29.58 in1001.7 mb 0.00 in0.0 mm 0.00 in0.0 mm 0.00 in0.0 mm
09:40 AM 81.1°F27.3°C 57.8°F14.3°C 45% 11.0 mph SSW17.7 kmh SSW 11.0 mph17.7 kmh 29.58 in1001.7 mb 0.00 in0.0 mm 0.00 in0.0 mm 0.00 in0.0 mm
09:35 AM 80.3°F26.8°C 58.3°F14.6°C 47% 6.0 mph SSW9.7 kmh SSW 12.0 mph19.3 kmh 29.58 in1001.7 mb 0.00 in0.0 mm 0.00 in0.0 mm 0.00 in0.0 mm
09:30 AM 79.7°F26.5°C 56.5°F13.6°C 45% 10.0 mph SW16.1 kmh SW 10.0 mph16.1 kmh 29.59 in1002.0 mb 0.00 in0.0 mm 0.00 in0.0 mm 0.00 in0.0 mm
09:25 AM 79.5°F26.4°C 57.5°F14.2°C 47% 7.0 mph SSW11.3 kmh SSW 14.0 mph22.5 kmh 29.59 in1002.0 mb 0.00 in0.0 mm 0.00 in0.0 mm 0.00 in0.0 mm
09:20 AM 78.6°F25.9°C 57.3°F14.1°C 48% Calm Calm 6.0 mph9.7 kmh 29.59 in1002.0 mb 0.00 in0.0 mm 0.00 in0.0 mm 0.00 in0.0 mm
09:15 AM 78.0°F25.6°C 57.3°F14.1°C 49% 8.0 mph SW12.9 kmh SW 15.0 mph24.1 kmh 29.59 in1002.0 mb 0.00 in0.0 mm 0.00 in0.0 mm 0.00 in0.0 mm
09:10 AM 77.2°F25.1°C 57.7°F14.3°C 51% 7.0 mph SSW11.3 kmh SSW 9.0 mph14.5 kmh 29.59 in1002.0 mb 0.00 in0.0 mm 0.00 in0.0 mm 0.00 in0.0 mm
09:05 AM 76.6°F24.8°C 57.7°F14.3°C 52% 7.0 mph SSW11.3 kmh SSW 11.0 mph17.7 kmh 29.60 in1002.4 mb 0.00 in0.0 mm 0.00 in0.0 mm 0.00 in0.0 mm
09:00 AM 75.7°F24.3°C 57.4°F14.1°C 53% 6.0 mph SSW9.7 kmh SSW 7.0 mph11.3 kmh 29.60 in1002.4 mb 0.00 in0.0 mm 0.00 in0.0 mm 0.00 in0.0 mm
08:55 AM 75.1°F23.9°C 56.8°F13.8°C 53% 6.0 mph SSW9.7 kmh SSW 13.0 mph20.9 kmh 29.60 in1002.4 mb 0.00 in0.0 mm 0.00 in0.0 mm 0.00 in0.0 mm
08:50 AM 74.4°F23.6°C 57.2°F14.0°C 55% 9.0 mph SSW14.5 kmh SSW 9.0 mph14.5 kmh 29.60 in1002.4 mb 0.00 in0.0 mm 0.00 in0.0 mm 0.00 in0.0 mm
08:45 AM 73.8°F23.2°C 56.6°F13.7°C 55% 8.0 mph SW12.9 kmh SW 12.0 mph19.3 kmh 29.61 in1002.7 mb 0.00 in0.0 mm 0.00 in0.0 mm 0.00 in0.0 mm
08:40 AM 73.2°F22.9°C 56.1°F13.4°C 55% 7.0 mph SW11.3 kmh SW 8.0 mph12.9 kmh 29.61 in1002.7 mb 0.00 in0.0 mm 0.00 in0.0 mm 0.00 in0.0 mm
08:35 AM 72.8°F22.7°C 56.2°F13.4°C 56% 6.0 mph SW9.7 kmh SW 9.0 mph14.5 kmh 29.61 in1002.7 mb 0.00 in0.0 mm 0.00 in0.0 mm 0.00 in0.0 mm
08:30 AM 72.2°F22.3°C 56.1°F13.4°C 57% 5.0 mph SSW8.0 kmh SSW 7.0 mph11.3 kmh 29.61 in1002.7 mb 0.00 in0.0 mm 0.00 in0.0 mm 0.00 in0.0 mm
08:25 AM 71.8°F22.1°C 55.8°F13.2°C 57% 2.0 mph SSW3.2 kmh SSW 6.0 mph9.7 kmh 29.61 in1002.7 mb 0.00 in0.0 mm 0.00 in0.0 mm 0.00 in0.0 mm
08:20 AM 71.4°F21.9°C 55.9°F13.3°C 58% 4.0 mph S6.4 kmh S 5.0 mph8.0 kmh 29.62 in1003.0 mb 0.00 in0.0 mm 0.00 in0.0 mm 0.00 in0.0 mm
08:15 AM 71.2°F21.8°C 55.7°F13.2°C 58% 7.0 mph S11.3 kmh S 10.0 mph16.1 kmh 29.62 in1003.0 mb 0.00 in0.0 mm 0.00 in0.0 mm 0.00 in0.0 mm
08:10 AM 70.7°F21.5°C 55.7°F13.2°C 59% 4.0 mph S6.4 kmh S 7.0 mph11.3 kmh 29.62 in1003.0 mb 0.00 in0.0 mm 0.00 in0.0 mm 0.00 in0.0 mm
08:05 AM 70.2°F21.2°C 55.2°F12.9°C 59% 2.0 mph SSW3.2 kmh SSW 5.0 mph8.0 kmh 29.62 in1003.0 mb 0.00 in0.0 mm 0.00 in0.0 mm 0.00 in0.0 mm
08:00 AM 69.8°F21.0°C 54.8°F12.7°C 59% Calm Calm 4.0 mph6.4 kmh 29.62 in1003.0 mb 0.00 in0.0 mm 0.00 in0.0 mm 0.00 in0.0 mm
07:55 AM 69.4°F20.8°C 54.9°F12.7°C 60% 4.0 mph SSW6.4 kmh SSW 6.0 mph9.7 kmh 29.62 in1003.0 mb 0.00 in0.0 mm 0.00 in0.0 mm 0.00 in0.0 mm
07:50 AM 69.1°F20.6°C 54.7°F12.6°C 60% 4.0 mph SSW6.4 kmh SSW 6.0 mph9.7 kmh 29.62 in1003.0 mb 0.00 in0.0 mm 0.00 in0.0 mm 0.00 in0.0 mm
07:45 AM 68.7°F20.4°C 55.2°F12.9°C 62% 5.0 mph SW8.0 kmh SW 8.0 mph12.9 kmh 29.62 in1003.0 mb 0.00 in0.0 mm 0.00 in0.0 mm 0.00 in0.0 mm
07:40 AM 68.3°F20.2°C 54.8°F12.7°C 62% 2.0 mph SW3.2 kmh SW 4.0 mph6.4 kmh 29.62 in1003.0 mb 0.00 in0.0 mm 0.00 in0.0 mm 0.00 in0.0 mm
07:35 AM 67.9°F19.9°C 54.4°F12.4°C 62% 1.0 mph WSW1.6 kmh WSW 5.0 mph8.0 kmh 29.62 in1003.0 mb 0.00 in0.0 mm 0.00 in0.0 mm 0.00 in0.0 mm
07:30 AM 67.5°F19.7°C 54.0°F12.2°C 62% Calm Calm 2.0 mph3.2 kmh 29.62 in1003.0 mb 0.00 in0.0 mm 0.00 in0.0 mm 0.00 in0.0 mm
07:25 AM 67.2°F19.6°C 53.8°F12.1°C 62% Calm Calm 5.0 mph8.0 kmh 29.63 in1003.4 mb 0.00 in0.0 mm 0.00 in0.0 mm 0.00 in0.0 mm
07:20 AM 66.6°F19.2°C 54.1°F12.3°C 64% Calm Calm -- 29.62 in1003.0 mb 0.00 in0.0 mm 0.00 in0.0 mm 0.00 in0.0 mm
07:15 AM 66.1°F18.9°C 54.4°F12.4°C 66% Calm Calm -- 29.63 in1003.4 mb 0.00 in0.0 mm 0.00 in0.0 mm 0.00 in0.0 mm
07:10 AM 65.7°F18.7°C 54.0°F12.2°C 66% Calm Calm -- 29.62 in1003.0 mb 0.00 in0.0 mm 0.00 in0.0 mm 0.00 in0.0 mm
07:05 AM 65.3°F18.5°C 54.1°F12.3°C 67% Calm Calm 6.0 mph9.7 kmh 29.62 in1003.0 mb 0.00 in0.0 mm 0.00 in0.0 mm 0.00 in0.0 mm
07:00 AM 65.1°F18.4°C 53.9°F12.2°C 67% Calm Calm -- 29.62 in1003.0 mb 0.00 in0.0 mm 0.00 in0.0 mm 0.00 in0.0 mm
06:55 AM 65.0°F18.3°C 53.4°F11.9°C 66% Calm Calm 4.0 mph6.4 kmh 29.63 in1003.4 mb 0.00 in0.0 mm 0.00 in0.0 mm 0.00 in0.0 mm
06:50 AM 64.9°F18.3°C 53.3°F11.8°C 66% 2.0 mph SSW3.2 kmh SSW 4.0 mph6.4 kmh 29.62 in1003.0 mb 0.00 in0.0 mm 0.00 in0.0 mm 0.00 in0.0 mm
06:45 AM 64.9°F18.3°C 53.7°F12.1°C 67% 2.0 mph SSW3.2 kmh SSW 10.0 mph16.1 kmh 29.62 in1003.0 mb 0.00 in0.0 mm 0.00 in0.0 mm 0.00 in0.0 mm
06:40 AM 64.6°F18.1°C 53.8°F12.1°C 68% 2.0 mph WSW3.2 kmh WSW 2.0 mph3.2 kmh 29.62 in1003.0 mb 0.00 in0.0 mm 0.00 in0.0 mm 0.00 in0.0 mm
06:35 AM 64.0°F17.8°C 53.6°F12.0°C 69% 2.0 mph WSW3.2 kmh WSW 7.0 mph11.3 kmh 29.62 in1003.0 mb 0.00 in0.0 mm 0.00 in0.0 mm 0.00 in0.0 mm
06:30 AM 63.8°F17.7°C 53.8°F12.1°C 70% 5.0 mph WSW8.0 kmh WSW 5.0 mph8.0 kmh 29.62 in1003.0 mb 0.00 in0.0 mm 0.00 in0.0 mm 0.00 in0.0 mm
06:25 AM 63.6°F17.6°C 53.7°F12.1°C 70% Calm Calm 4.0 mph6.4 kmh 29.62 in1003.0 mb 0.00 in0.0 mm 0.00 in0.0 mm 0.00 in0.0 mm
06:20 AM 63.5°F17.5°C 53.2°F11.8°C 69% 2.0 mph WSW3.2 kmh WSW 3.0 mph4.8 kmh 29.62 in1003.0 mb 0.00 in0.0 mm 0.00 in0.0 mm 0.00 in0.0 mm
06:15 AM 63.8°F17.7°C 53.1°F11.7°C 68% 1.0 mph WSW1.6 kmh WSW 7.0 mph11.3 kmh 29.62 in1003.0 mb 0.00 in0.0 mm 0.00 in0.0 mm 0.00 in0.0 mm
06:10 AM 64.6°F18.1°C 53.4°F11.9°C 67% Calm Calm -- 29.62 in1003.0 mb 0.00 in0.0 mm 0.00 in0.0 mm 0.00 in0.0 mm
06:05 AM 65.2°F18.4°C 53.6°F12.0°C 66% 2.0 mph WNW3.2 kmh WNW 6.0 mph9.7 kmh 29.63 in1003.4 mb 0.00 in0.0 mm 0.00 in0.0 mm 0.00 in0.0 mm
06:00 AM 65.7°F18.7°C 53.6°F12.0°C 65% 4.0 mph WNW6.4 kmh WNW 4.0 mph6.4 kmh 29.62 in1003.0 mb 0.00 in0.0 mm 0.00 in0.0 mm 0.00 in0.0 mm
05:55 AM 66.0°F18.9°C 53.5°F11.9°C 64% 1.0 mph WNW1.6 kmh WNW 6.0 mph9.7 kmh 29.62 in1003.0 mb 0.00 in0.0 mm 0.00 in0.0 mm 0.00 in0.0 mm
05:50 AM 66.2°F19.0°C 53.3°F11.8°C 63% 3.0 mph W4.8 kmh W 3.0 mph4.8 kmh 29.62 in1003.0 mb 0.00 in0.0 mm 0.00 in0.0 mm 0.00 in0.0 mm
05:45 AM 66.3°F19.1°C 53.3°F11.8°C 63% Calm Calm 6.0 mph9.7 kmh 29.62 in1003.0 mb 0.00 in0.0 mm 0.00 in0.0 mm 0.00 in0.0 mm
05:40 AM 66.2°F19.0°C 52.8°F11.6°C 62% Calm Calm -- 29.62 in1003.0 mb 0.00 in0.0 mm 0.00 in0.0 mm 0.00 in0.0 mm
05:35 AM 66.1°F18.9°C 53.2°F11.8°C 63% 6.0 mph WSW9.7 kmh WSW 12.0 mph19.3 kmh 29.62 in1003.0 mb 0.00 in0.0 mm 0.00 in0.0 mm 0.00 in0.0 mm
05:30 AM 66.0°F18.9°C 53.1°F11.7°C 63% 2.0 mph SSW3.2 kmh SSW 4.0 mph6.4 kmh 29.62 in1003.0 mb 0.00 in0.0 mm 0.00 in0.0 mm 0.00 in0.0 mm
05:25 AM 66.1°F18.9°C 53.2°F11.8°C 63% 6.0 mph WSW9.7 kmh WSW 13.0 mph20.9 kmh 29.62 in1003.0 mb 0.00 in0.0 mm 0.00 in0.0 mm 0.00 in0.0 mm
05:20 AM 66.1°F18.9°C 53.2°F11.8°C 63% 6.0 mph SW9.7 kmh SW 9.0 mph14.5 kmh 29.62 in1003.0 mb 0.00 in0.0 mm 0.00 in0.0 mm 0.00 in0.0 mm
05:15 AM 65.9°F18.8°C 53.4°F11.9°C 64% 11.0 mph SW17.7 kmh SW 13.0 mph20.9 kmh 29.62 in1003.0 mb 0.00 in0.0 mm 0.00 in0.0 mm 0.00 in0.0 mm
05:10 AM 66.0°F18.9°C 53.5°F11.9°C 64% 6.0 mph SW9.7 kmh SW 6.0 mph9.7 kmh 29.61 in1002.7 mb 0.00 in0.0 mm 0.00 in0.0 mm 0.00 in0.0 mm
05:05 AM 66.0°F18.9°C 53.5°F11.9°C 64% 2.0 mph SSW3.2 kmh SSW 13.0 mph20.9 kmh 29.61 in1002.7 mb 0.00 in0.0 mm 0.00 in0.0 mm 0.00 in0.0 mm
05:00 AM 65.8°F18.8°C 53.7°F12.1°C 65% 3.0 mph SSW4.8 kmh SSW 7.0 mph11.3 kmh 29.61 in1002.7 mb 0.00 in0.0 mm 0.00 in0.0 mm 0.00 in0.0 mm
04:55 AM 65.6°F18.7°C 53.5°F11.9°C 65% 5.0 mph SW8.0 kmh SW 10.0 mph16.1 kmh 29.61 in1002.7 mb 0.00 in0.0 mm 0.00 in0.0 mm 0.00 in0.0 mm
04:50 AM 65.3°F18.5°C 53.7°F12.1°C 66% 4.0 mph SW6.4 kmh SW 6.0 mph9.7 kmh 29.61 in1002.7 mb 0.00 in0.0 mm 0.00 in0.0 mm 0.00 in0.0 mm
04:45 AM 65.0°F18.3°C 53.8°F12.1°C 67% 6.0 mph SW9.7 kmh SW 6.0 mph9.7 kmh 29.62 in1003.0 mb 0.00 in0.0 mm 0.00 in0.0 mm 0.00 in0.0 mm
04:40 AM 64.9°F18.3°C 53.7°F12.1°C 67% 2.0 mph SW3.2 kmh SW 2.0 mph3.2 kmh 29.62 in1003.0 mb 0.00 in0.0 mm 0.00 in0.0 mm 0.00 in0.0 mm
04:35 AM 64.7°F18.2°C 53.9°F12.2°C 68% 1.0 mph SW1.6 kmh SW 6.0 mph9.7 kmh 29.62 in1003.0 mb 0.00 in0.0 mm 0.00 in0.0 mm 0.00 in0.0 mm
04:30 AM 64.6°F18.1°C 54.2°F12.3°C 69% 2.0 mph SW3.2 kmh SW 2.0 mph3.2 kmh 29.62 in1003.0 mb 0.00 in0.0 mm 0.00 in0.0 mm 0.00 in0.0 mm
04:25 AM 64.6°F18.1°C 54.2°F12.3°C 69% 2.0 mph SW3.2 kmh SW 6.0 mph9.7 kmh 29.62 in1003.0 mb 0.00 in0.0 mm 0.00 in0.0 mm 0.00 in0.0 mm
04:20 AM 64.5°F18.1°C 54.5°F12.5°C 70% 6.0 mph SW9.7 kmh SW 6.0 mph9.7 kmh 29.62 in1003.0 mb 0.00 in0.0 mm 0.00 in0.0 mm 0.00 in0.0 mm
04:15 AM 64.5°F18.1°C 54.5°F12.5°C 70% 2.0 mph SW3.2 kmh SW 7.0 mph11.3 kmh 29.61 in1002.7 mb 0.00 in0.0 mm 0.00 in0.0 mm 0.00 in0.0 mm
04:10 AM 64.4°F18.0°C 54.4°F12.4°C 70% 4.0 mph SW6.4 kmh SW 5.0 mph8.0 kmh 29.61 in1002.7 mb 0.00 in0.0 mm 0.00 in0.0 mm 0.00 in0.0 mm
04:05 AM 64.5°F18.1°C 54.5°F12.5°C 70% Calm Calm 2.0 mph3.2 kmh 29.61 in1002.7 mb 0.00 in0.0 mm 0.00 in0.0 mm 0.00 in0.0 mm
04:00 AM 64.5°F18.1°C 54.5°F12.5°C 70% Calm Calm -- 29.61 in1002.7 mb 0.00 in0.0 mm 0.00 in0.0 mm 0.00 in0.0 mm
03:55 AM 64.5°F18.1°C 54.5°F12.5°C 70% Calm Calm 4.0 mph6.4 kmh 29.61 in1002.7 mb 0.00 in0.0 mm 0.00 in0.0 mm 0.00 in0.0 mm
03:50 AM 64.7°F18.2°C 55.1°F12.8°C 71% Calm Calm 1.0 mph1.6 kmh 29.61 in1002.7 mb 0.00 in0.0 mm 0.00 in0.0 mm 0.00 in0.0 mm
03:45 AM 64.8°F18.2°C 54.8°F12.7°C 70% Calm Calm -- 29.61 in1002.7 mb 0.00 in0.0 mm 0.00 in0.0 mm 0.00 in0.0 mm
03:40 AM 64.8°F18.2°C 54.8°F12.7°C 70% Calm Calm -- 29.61 in1002.7 mb 0.00 in0.0 mm 0.00 in0.0 mm 0.00 in0.0 mm
03:35 AM 64.9°F18.3°C 55.3°F12.9°C 71% 2.0 mph SW3.2 kmh SW 4.0 mph6.4 kmh 29.61 in1002.7 mb 0.00 in0.0 mm 0.00 in0.0 mm 0.00 in0.0 mm
03:30 AM 65.2°F18.4°C 55.2°F12.9°C 70% Calm Calm -- 29.61 in1002.7 mb 0.00 in0.0 mm 0.00 in0.0 mm 0.00 in0.0 mm
03:25 AM 65.5°F18.6°C 55.5°F13.1°C 70% Calm Calm 4.0 mph6.4 kmh 29.61 in1002.7 mb 0.00 in0.0 mm 0.00 in0.0 mm 0.00 in0.0 mm
03:20 AM 65.9°F18.8°C 55.5°F13.1°C 69% 2.0 mph SW3.2 kmh SW 4.0 mph6.4 kmh 29.61 in1002.7 mb 0.00 in0.0 mm 0.00 in0.0 mm 0.00 in0.0 mm
03:15 AM 66.4°F19.1°C 55.5°F13.1°C 68% Calm Calm 2.0 mph3.2 kmh 29.61 in1002.7 mb 0.00 in0.0 mm 0.00 in0.0 mm 0.00 in0.0 mm
03:10 AM 66.8°F19.3°C 55.1°F12.8°C 66% Calm Calm -- 29.61 in1002.7 mb 0.00 in0.0 mm 0.00 in0.0 mm 0.00 in0.0 mm
03:05 AM 67.5°F19.7°C 54.9°F12.7°C 64% Calm Calm 3.0 mph4.8 kmh 29.61 in1002.7 mb 0.00 in0.0 mm 0.00 in0.0 mm 0.00 in0.0 mm
03:00 AM 67.9°F19.9°C 54.4°F12.4°C 62% Calm Calm -- 29.61 in1002.7 mb 0.00 in0.0 mm 0.00 in0.0 mm 0.00 in0.0 mm
02:55 AM 68.0°F20.0°C 54.1°F12.3°C 61% Calm Calm 7.0 mph11.3 kmh 29.61 in1002.7 mb 0.00 in0.0 mm 0.00 in0.0 mm 0.00 in0.0 mm
02:50 AM 68.4°F20.2°C 54.0°F12.2°C 60% 1.0 mph SW1.6 kmh SW 2.0 mph3.2 kmh 29.62 in1003.0 mb 0.00 in0.0 mm 0.00 in0.0 mm 0.00 in0.0 mm
02:45 AM 68.6°F20.3°C 53.7°F12.1°C 59% Calm Calm 2.0 mph3.2 kmh 29.62 in1003.0 mb 0.00 in0.0 mm 0.00 in0.0 mm 0.00 in0.0 mm
02:40 AM 68.8°F20.4°C 53.4°F11.9°C 58% Calm Calm -- 29.62 in1003.0 mb 0.00 in0.0 mm 0.00 in0.0 mm 0.00 in0.0 mm
02:35 AM 68.8°F20.4°C 53.9°F12.2°C 59% Calm Calm 6.0 mph9.7 kmh 29.61 in1002.7 mb 0.00 in0.0 mm 0.00 in0.0 mm 0.00 in0.0 mm
02:30 AM 68.9°F20.5°C 54.0°F12.2°C 59% 2.0 mph SW3.2 kmh SW 4.0 mph6.4 kmh 29.61 in1002.7 mb 0.00 in0.0 mm 0.00 in0.0 mm 0.00 in0.0 mm
02:25 AM 68.8°F20.4°C 53.9°F12.2°C 59% 6.0 mph SW9.7 kmh SW 8.0 mph12.9 kmh 29.61 in1002.7 mb 0.00 in0.0 mm 0.00 in0.0 mm 0.00 in0.0 mm
02:20 AM 69.0°F20.6°C 53.6°F12.0°C 58% 6.0 mph WSW9.7 kmh WSW 6.0 mph9.7 kmh 29.62 in1003.0 mb 0.00 in0.0 mm 0.00 in0.0 mm 0.00 in0.0 mm
02:15 AM 69.2°F20.7°C 54.3°F12.4°C 59% 2.0 mph N3.2 kmh N 4.0 mph6.4 kmh 29.62 in1003.0 mb 0.00 in0.0 mm 0.00 in0.0 mm 0.00 in0.0 mm
02:10 AM 69.7°F20.9°C 54.3°F12.4°C 58% 2.0 mph N3.2 kmh N 2.0 mph3.2 kmh 29.62 in1003.0 mb 0.00 in0.0 mm 0.00 in0.0 mm 0.00 in0.0 mm
02:05 AM 70.7°F21.5°C 54.3°F12.4°C 56% Calm Calm 6.0 mph9.7 kmh 29.62 in1003.0 mb 0.00 in0.0 mm 0.00 in0.0 mm 0.00 in0.0 mm
02:00 AM 71.0°F21.7°C 54.0°F12.2°C 55% 3.0 mph N4.8 kmh N 6.0 mph9.7 kmh 29.63 in1003.4 mb 0.00 in0.0 mm 0.00 in0.0 mm 0.00 in0.0 mm
01:55 AM 71.4°F21.9°C 52.9°F11.6°C 52% 4.0 mph NNE6.4 kmh NNE 9.0 mph14.5 kmh 29.63 in1003.4 mb 0.00 in0.0 mm 0.00 in0.0 mm 0.00 in0.0 mm
01:50 AM 71.5°F21.9°C 52.4°F11.3°C 51% Calm Calm -- 29.62 in1003.0 mb 0.00 in0.0 mm 0.00 in0.0 mm 0.00 in0.0 mm
01:45 AM 71.6°F22.0°C 52.5°F11.4°C 51% 3.0 mph SW4.8 kmh SW 6.0 mph9.7 kmh 29.62 in1003.0 mb 0.00 in0.0 mm 0.00 in0.0 mm 0.00 in0.0 mm
01:40 AM 71.7°F22.1°C 52.6°F11.4°C 51% 3.0 mph SW4.8 kmh SW 4.0 mph6.4 kmh 29.62 in1003.0 mb 0.00 in0.0 mm 0.00 in0.0 mm 0.00 in0.0 mm
01:35 AM 71.7°F22.1°C 52.6°F11.4°C 51% Calm Calm 5.0 mph8.0 kmh 29.62 in1003.0 mb 0.00 in0.0 mm 0.00 in0.0 mm 0.00 in0.0 mm
01:30 AM 71.7°F22.1°C 52.1°F11.2°C 50% Calm Calm -- 29.62 in1003.0 mb 0.00 in0.0 mm 0.00 in0.0 mm 0.00 in0.0 mm
01:25 AM 71.7°F22.1°C 52.6°F11.4°C 51% Calm Calm 8.0 mph12.9 kmh 29.62 in1003.0 mb 0.00 in0.0 mm 0.00 in0.0 mm 0.00 in0.0 mm
01:20 AM 71.5°F21.9°C 52.4°F11.3°C 51% 4.0 mph SW6.4 kmh SW 6.0 mph9.7 kmh 29.62 in1003.0 mb 0.00 in0.0 mm 0.00 in0.0 mm 0.00 in0.0 mm
01:15 AM 71.5°F21.9°C 52.4°F11.3°C 51% 2.0 mph SW3.2 kmh SW 7.0 mph11.3 kmh 29.62 in1003.0 mb 0.00 in0.0 mm 0.00 in0.0 mm 0.00 in0.0 mm
01:10 AM 71.5°F21.9°C 53.0°F11.7°C 52% 4.0 mph SW6.4 kmh SW 4.0 mph6.4 kmh 29.62 in1003.0 mb 0.00 in0.0 mm 0.00 in0.0 mm 0.00 in0.0 mm
01:05 AM 71.7°F22.1°C 53.2°F11.8°C 52% 4.0 mph SW6.4 kmh SW 6.0 mph9.7 kmh 29.62 in1003.0 mb 0.00 in0.0 mm 0.00 in0.0 mm 0.00 in0.0 mm
01:00 AM 72.1°F22.3°C 53.0°F11.7°C 51% 4.0 mph SW6.4 kmh SW 4.0 mph6.4 kmh 29.63 in1003.4 mb 0.00 in0.0 mm 0.00 in0.0 mm 0.00 in0.0 mm
12:55 AM 72.5°F22.5°C 52.8°F11.6°C 50% Calm Calm 4.0 mph6.4 kmh 29.63 in1003.4 mb 0.00 in0.0 mm 0.00 in0.0 mm 0.00 in0.0 mm
12:50 AM 72.8°F22.7°C 52.6°F11.4°C 49% Calm Calm 2.0 mph3.2 kmh 29.63 in1003.4 mb 0.00 in0.0 mm 0.00 in0.0 mm 0.00 in0.0 mm
12:45 AM 73.0°F22.8°C 52.2°F11.2°C 48% 2.0 mph SW3.2 kmh SW 6.0 mph9.7 kmh 29.63 in1003.4 mb 0.00 in0.0 mm 0.00 in0.0 mm 0.00 in0.0 mm
12:40 AM 73.2°F22.9°C 52.4°F11.3°C 48% Calm Calm 1.0 mph1.6 kmh 29.63 in1003.4 mb 0.00 in0.0 mm 0.00 in0.0 mm 0.00 in0.0 mm
12:35 AM 73.3°F22.9°C 51.9°F11.1°C 47% Calm Calm 4.0 mph6.4 kmh 29.64 in1003.7 mb 0.00 in0.0 mm 0.00 in0.0 mm 0.00 in0.0 mm
12:30 AM 73.5°F23.1°C 52.1°F11.2°C 47% Calm Calm -- 29.64 in1003.7 mb 0.00 in0.0 mm 0.00 in0.0 mm 0.00 in0.0 mm
12:25 AM 73.6°F23.1°C 51.6°F10.9°C 46% 1.0 mph SW1.6 kmh SW 2.0 mph3.2 kmh 29.64 in1003.7 mb 0.00 in0.0 mm 0.00 in0.0 mm 0.00 in0.0 mm
12:20 AM 73.7°F23.2°C 51.7°F10.9°C 46% 1.0 mph SW1.6 kmh SW 1.0 mph1.6 kmh 29.64 in1003.7 mb 0.00 in0.0 mm 0.00 in0.0 mm 0.00 in0.0 mm
12:15 AM 73.9°F23.3°C 51.2°F10.7°C 45% 2.0 mph SW3.2 kmh SW 8.0 mph12.9 kmh 29.64 in1003.7 mb 0.00 in0.0 mm 0.00 in0.0 mm 0.00 in0.0 mm
12:10 AM 74.0°F23.3°C 51.9°F11.1°C 46% 1.0 mph SW1.6 kmh SW 1.0 mph1.6 kmh 29.64 in1003.7 mb 0.00 in0.0 mm 0.00 in0.0 mm 0.00 in0.0 mm
12:05 AM 74.1°F23.4°C 52.0°F11.1°C 46% 4.0 mph SW6.4 kmh SW 6.0 mph9.7 kmh 29.64 in1003.7 mb 0.00 in0.0 mm 0.00 in0.0 mm 0.00 in0.0 mm
12:00 AM 74.4°F23.6°C 51.7°F10.9°C 45% 4.0 mph WSW6.4 kmh WSW 6.0 mph9.7 kmh 29.63 in1003.4 mb 0.00 in0.0 mm 0.00 in0.0 mm 0.00 in0.0 mm